createdAt,value
2018-10-17T00:00:31.510Z,99.90
2018-10-17T00:02:59.278Z,99.90
2018-10-17T00:05:26.941Z,99.90
2018-10-17T00:07:54.662Z,99.90
2018-10-17T00:10:22.358Z,99.90
2018-10-17T00:12:50.096Z,99.90
2018-10-17T00:15:17.808Z,99.90
2018-10-17T00:17:45.555Z,99.90
2018-10-17T00:20:13.330Z,99.90
2018-10-17T00:22:41.058Z,99.90
2018-10-17T00:25:08.835Z,99.90
2018-10-17T00:27:36.545Z,99.90
2018-10-17T00:30:05.979Z,99.90
2018-10-17T00:32:33.718Z,99.90
2018-10-17T00:37:29.024Z,99.90
2018-10-17T00:39:56.705Z,99.90
2018-10-17T00:42:24.433Z,99.90
2018-10-17T00:44:52.144Z,99.90
2018-10-17T00:47:19.796Z,99.90
2018-10-17T00:49:47.508Z,99.90
2018-10-17T00:52:15.208Z,99.90
2018-10-17T00:54:42.910Z,99.90
2018-10-17T00:57:10.591Z,99.90
2018-10-17T00:59:38.255Z,99.90
2018-10-17T01:02:06.018Z,99.90
2018-10-17T01:04:33.732Z,99.90
2018-10-17T01:07:01.438Z,99.90
2018-10-17T01:09:29.180Z,99.90
2018-10-17T01:14:24.452Z,99.90
2018-10-17T01:16:53.876Z,99.90
2018-10-17T01:19:21.600Z,99.90
2018-10-17T01:21:49.316Z,99.90
2018-10-17T01:24:17.013Z,99.90
2018-10-17T01:26:44.695Z,99.90
2018-10-17T01:29:12.485Z,99.90
2018-10-17T01:31:40.110Z,99.90
2018-10-17T01:34:07.828Z,99.90
2018-10-17T01:36:35.512Z,99.90
2018-10-17T01:39:04.213Z,99.90
2018-10-17T01:41:31.893Z,99.90
2018-10-17T01:43:59.601Z,99.90
2018-10-17T01:46:27.321Z,99.90
2018-10-17T01:48:55.391Z,99.90
2018-10-17T01:51:23.106Z,99.90
2018-10-17T01:53:51.681Z,99.90
2018-10-17T01:56:19.504Z,99.90
2018-10-17T02:01:15.306Z,99.90
2018-10-17T02:03:42.995Z,99.90
2018-10-17T02:06:10.657Z,99.90
2018-10-17T02:08:38.410Z,99.90
2018-10-17T02:11:06.153Z,99.90
2018-10-17T02:13:33.831Z,99.90
2018-10-17T02:16:01.579Z,99.90
2018-10-17T02:18:29.293Z,99.90
2018-10-17T02:20:57.010Z,99.90
2018-10-17T02:23:24.657Z,99.90
2018-10-17T02:28:19.973Z,99.90
2018-10-17T02:30:47.697Z,99.90
2018-10-17T02:33:15.395Z,99.90
2018-10-17T02:35:43.092Z,99.90
2018-10-17T02:38:10.810Z,99.90
2018-10-17T02:40:38.512Z,99.90
2018-10-17T02:43:06.272Z,99.90
2018-10-17T02:45:33.917Z,99.90
2018-10-17T02:48:01.714Z,99.90
2018-10-17T02:50:29.415Z,99.90
2018-10-17T02:52:57.146Z,99.90
2018-10-17T02:55:24.938Z,99.90
2018-10-17T02:57:52.687Z,99.90
2018-10-17T03:00:20.345Z,99.90
2018-10-17T03:02:48.049Z,99.90
2018-10-17T03:05:15.788Z,99.90
2018-10-17T03:07:43.468Z,99.90
2018-10-17T03:10:11.173Z,99.90
2018-10-17T03:12:38.956Z,99.90
2018-10-17T03:15:07.434Z,99.90
2018-10-17T03:17:35.260Z,99.90
2018-10-17T03:20:03.069Z,99.90
2018-10-17T03:22:30.805Z,99.90
2018-10-17T03:24:58.472Z,99.90
2018-10-17T03:27:26.239Z,99.90
2018-10-17T03:29:53.931Z,99.90
2018-10-17T03:32:21.744Z,99.90
2018-10-17T03:34:49.364Z,99.90
2018-10-17T03:37:17.176Z,99.90
2018-10-17T03:39:44.806Z,99.90
2018-10-17T03:42:12.541Z,99.90
2018-10-17T03:44:40.210Z,99.90
2018-10-17T03:47:07.948Z,99.90
2018-10-17T03:49:35.700Z,99.90
2018-10-17T03:52:03.782Z,99.90
2018-10-17T03:54:31.482Z,99.90
2018-10-17T03:56:59.175Z,99.90
2018-10-17T03:59:26.995Z,99.90
2018-10-17T04:01:54.627Z,99.90
2018-10-17T04:04:22.357Z,99.90
2018-10-17T04:06:50.072Z,99.90
2018-10-17T04:09:17.794Z,99.90
2018-10-17T04:11:45.485Z,99.90
2018-10-17T04:14:13.188Z,99.90
2018-10-17T04:16:40.857Z,99.90
2018-10-17T04:19:08.649Z,99.90
2018-10-17T04:21:36.306Z,99.90
2018-10-17T04:24:04.110Z,99.90
2018-10-17T04:26:31.848Z,99.90
2018-10-17T04:28:59.586Z,99.90
2018-10-17T04:31:27.375Z,99.90
2018-10-17T04:33:55.074Z,99.90
2018-10-17T04:36:22.907Z,99.90
2018-10-17T04:38:50.569Z,99.90
2018-10-17T04:41:18.357Z,99.90
2018-10-17T04:43:46.029Z,99.90
2018-10-17T04:46:13.819Z,99.90
2018-10-17T04:48:41.588Z,99.90
2018-10-17T04:51:10.595Z,99.90
2018-10-17T04:53:38.281Z,99.90
2018-10-17T04:56:05.999Z,99.90
2018-10-17T04:58:33.698Z,99.90
2018-10-17T05:01:01.465Z,99.90
2018-10-17T05:03:29.147Z,99.90
2018-10-17T05:05:57.172Z,99.90
2018-10-17T05:08:24.941Z,99.90
2018-10-17T05:10:52.651Z,99.90
2018-10-17T05:13:20.443Z,99.90
2018-10-17T05:15:48.178Z,99.90
2018-10-17T05:18:15.948Z,99.90
2018-10-17T05:20:43.660Z,99.90
2018-10-17T05:23:11.451Z,99.90
2018-10-17T05:25:39.150Z,99.90
2018-10-17T05:28:07.220Z,99.90
2018-10-17T05:30:35.306Z,99.90
2018-10-17T05:33:03.047Z,99.90
2018-10-17T05:35:30.817Z,99.90
2018-10-17T05:37:58.531Z,99.90
2018-10-17T05:40:26.293Z,99.90
2018-10-17T05:42:53.990Z,99.90
2018-10-17T05:45:21.667Z,99.90
2018-10-17T05:47:49.361Z,99.90
2018-10-17T05:50:17.057Z,99.90
2018-10-17T05:52:44.716Z,99.90
2018-10-17T05:55:12.504Z,99.90
2018-10-17T05:57:40.130Z,99.90
2018-10-17T06:00:08.217Z,99.90
2018-10-17T06:02:36.935Z,99.90
2018-10-17T06:05:05.624Z,99.90
2018-10-17T06:07:33.276Z,99.90
2018-10-17T06:10:01.035Z,99.90
2018-10-17T06:12:28.785Z,99.90
2018-10-17T06:14:56.494Z,99.90
2018-10-17T06:17:24.215Z,99.90
2018-10-17T06:19:51.962Z,99.90
2018-10-17T06:22:19.694Z,99.90
2018-10-17T06:24:47.409Z,99.90
2018-10-17T06:27:15.094Z,99.90
2018-10-17T06:32:10.443Z,99.90
2018-10-17T06:34:38.290Z,99.90
2018-10-17T06:37:06.465Z,99.90
2018-10-17T06:39:34.224Z,99.90
2018-10-17T06:42:02.022Z,99.90
2018-10-17T06:44:29.774Z,99.90
2018-10-17T06:46:57.539Z,99.90
2018-10-17T06:49:25.275Z,99.90
2018-10-17T06:51:53.040Z,99.90
2018-10-17T06:54:20.798Z,99.90
2018-10-17T06:56:48.456Z,99.90
2018-10-17T06:59:16.223Z,99.90
2018-10-17T07:01:44.343Z,99.90
2018-10-17T07:04:12.488Z,99.90
2018-10-17T07:06:40.597Z,99.90
2018-10-17T07:09:09.569Z,99.90
2018-10-17T07:11:37.970Z,99.90
2018-10-17T07:14:06.095Z,99.90
2018-10-17T07:16:34.295Z,99.90
2018-10-17T07:19:04.220Z,99.90
2018-10-17T07:21:32.340Z,99.90
2018-10-17T07:24:00.332Z,99.90
2018-10-17T07:26:28.554Z,99.90
2018-10-17T07:28:56.739Z,99.90
2018-10-17T07:31:24.855Z,99.90
2018-10-17T07:33:52.762Z,99.90
2018-10-17T07:36:20.790Z,99.90
2018-10-17T07:41:16.675Z,99.90
2018-10-17T07:43:44.638Z,99.90
2018-10-17T07:46:12.745Z,99.90
2018-10-17T07:48:40.764Z,99.90
2018-10-17T07:51:08.526Z,99.90
2018-10-17T07:53:36.345Z,99.90
2018-10-17T07:56:04.210Z,99.90
2018-10-17T07:58:32.265Z,99.90
2018-10-17T08:01:02.585Z,99.90
2018-10-17T08:03:30.333Z,99.90
2018-10-17T08:05:58.030Z,99.90
2018-10-17T08:08:25.763Z,99.90
2018-10-17T08:10:53.461Z,99.90
2018-10-17T08:13:21.154Z,99.90
2018-10-17T08:15:48.806Z,99.90
2018-10-17T08:18:16.924Z,99.90
2018-10-17T08:20:44.669Z,99.90
2018-10-17T08:23:12.404Z,99.90
2018-10-17T08:25:40.117Z,99.90
2018-10-17T08:28:07.822Z,99.90
2018-10-17T08:30:35.483Z,99.90
2018-10-17T08:33:03.190Z,99.90
2018-10-17T08:35:30.983Z,99.90
2018-10-17T08:37:58.564Z,99.90
2018-10-17T08:40:26.266Z,99.90
2018-10-17T08:42:53.960Z,99.90
2018-10-17T08:45:21.976Z,99.90
2018-10-17T08:47:49.681Z,99.90
2018-10-17T08:50:17.511Z,99.90
2018-10-17T08:52:45.220Z,99.90
2018-10-17T08:55:12.891Z,99.90
2018-10-17T08:57:40.626Z,99.90
2018-10-17T09:00:08.524Z,99.90
2018-10-17T09:02:36.260Z,99.90
2018-10-17T09:05:04.117Z,99.90
2018-10-17T09:07:31.891Z,99.90
2018-10-17T09:09:59.760Z,99.90
2018-10-17T09:12:27.775Z,99.90
2018-10-17T09:14:55.508Z,99.90
2018-10-17T09:17:25.080Z,99.70
2018-10-17T09:19:53.687Z,99.90
2018-10-17T09:22:21.513Z,98.60
2018-10-17T09:24:49.010Z,97.20
2018-10-17T09:27:16.769Z,97.50
2018-10-17T09:29:46.428Z,95.50
2018-10-17T09:32:14.138Z,93.80
2018-10-17T09:34:41.825Z,94.00
2018-10-17T09:37:09.497Z,95.00
2018-10-17T09:39:37.218Z,93.30
2018-10-17T09:42:04.967Z,92.30
2018-10-17T09:44:32.660Z,91.40
2018-10-17T09:47:00.348Z,88.90
2018-10-17T09:49:28.033Z,86.30
2018-10-17T09:51:55.768Z,85.30
2018-10-17T09:54:23.545Z,83.30
2018-10-17T09:56:51.241Z,82.50
2018-10-17T09:59:18.935Z,79.60
2018-10-17T10:01:50.090Z,77.50
2018-10-17T10:04:18.089Z,75.90
2018-10-17T10:06:45.989Z,77.10
2018-10-17T10:09:13.656Z,76.50
2018-10-17T10:11:41.386Z,76.70
2018-10-17T10:14:09.166Z,75.60
2018-10-17T10:16:36.941Z,76.00
2018-10-17T10:19:05.417Z,77.40
2018-10-17T10:21:33.119Z,76.10
2018-10-17T10:24:01.209Z,76.00
2018-10-17T10:26:29.099Z,76.70
2018-10-17T10:28:56.781Z,77.70
2018-10-17T10:31:24.695Z,76.70
2018-10-17T10:33:52.502Z,74.60
2018-10-17T10:36:20.208Z,73.00
2018-10-17T10:38:47.953Z,72.60
2018-10-17T10:41:15.755Z,71.50
2018-10-17T10:43:43.654Z,68.50
2018-10-17T10:46:11.396Z,68.40
2018-10-17T10:48:39.074Z,67.20
2018-10-17T10:51:07.356Z,67.70
2018-10-17T10:53:35.103Z,67.40
2018-10-17T10:56:03.123Z,69.80
2018-10-17T10:58:30.946Z,68.90
2018-10-17T11:00:59.497Z,68.00
2018-10-17T11:03:27.193Z,67.20
2018-10-17T11:05:54.979Z,67.50
2018-10-17T11:08:23.150Z,65.90
2018-10-17T11:10:52.081Z,66.70
2018-10-17T11:13:19.876Z,65.10
2018-10-17T11:15:47.549Z,63.90
2018-10-17T11:18:15.179Z,63.40
2018-10-17T11:20:42.965Z,65.60
2018-10-17T11:23:11.279Z,65.30
2018-10-17T11:25:38.938Z,65.70
2018-10-17T11:28:06.584Z,65.80
2018-10-17T11:30:34.554Z,66.20
2018-10-17T11:33:02.335Z,67.80
2018-10-17T11:35:30.038Z,69.10
2018-10-17T11:37:57.814Z,72.30
2018-10-17T11:40:25.634Z,73.60
2018-10-17T11:42:53.244Z,75.40
2018-10-17T11:45:20.961Z,77.70
2018-10-17T11:47:48.816Z,80.10
2018-10-17T11:50:16.442Z,80.50
2018-10-17T11:52:46.447Z,82.60
2018-10-17T11:55:14.134Z,82.80
2018-10-17T11:57:41.782Z,83.40
2018-10-17T12:00:11.210Z,83.70
2018-10-17T12:02:38.904Z,84.00
2018-10-17T12:05:09.232Z,85.00
2018-10-17T12:07:36.653Z,84.60
2018-10-17T12:10:05.066Z,85.00
2018-10-17T12:12:32.842Z,84.00
2018-10-17T12:15:00.653Z,83.50
2018-10-17T12:17:28.380Z,83.00
2018-10-17T12:19:56.202Z,82.60
2018-10-17T12:22:23.783Z,82.50
2018-10-17T12:24:51.442Z,82.50
2018-10-17T12:27:19.373Z,83.30
2018-10-17T12:29:47.167Z,82.90
2018-10-17T12:32:14.932Z,82.10
2018-10-17T12:34:42.836Z,84.20
2018-10-17T12:37:10.635Z,83.30
2018-10-17T12:39:38.398Z,83.20
2018-10-17T12:42:06.010Z,83.40
2018-10-17T12:44:33.787Z,84.90
2018-10-17T12:47:01.528Z,85.20
2018-10-17T12:49:29.192Z,87.10
2018-10-17T12:51:56.859Z,85.50
2018-10-17T12:54:25.033Z,86.10
2018-10-17T12:56:52.708Z,86.90
2018-10-17T12:59:20.602Z,86.00
2018-10-17T13:01:48.195Z,85.40
2018-10-17T13:04:15.887Z,84.90
2018-10-17T13:06:43.601Z,84.30
2018-10-17T13:09:12.083Z,84.10
2018-10-17T13:11:39.840Z,83.80
2018-10-17T13:14:07.726Z,83.10
2018-10-17T13:16:35.496Z,84.20
2018-10-17T13:19:03.335Z,82.90
2018-10-17T13:21:31.125Z,83.00
2018-10-17T13:23:59.304Z,81.50
2018-10-17T13:26:27.009Z,82.10
2018-10-17T13:28:54.687Z,81.60
2018-10-17T13:31:22.604Z,80.60
2018-10-17T13:33:50.263Z,81.10
2018-10-17T13:36:17.955Z,81.90
2018-10-17T13:38:45.598Z,82.20
2018-10-17T13:41:13.376Z,81.50
2018-10-17T13:43:41.046Z,80.60
2018-10-17T13:46:08.732Z,81.40
2018-10-17T13:48:36.441Z,80.50
2018-10-17T13:51:04.296Z,77.80
2018-10-17T13:53:31.949Z,79.80
2018-10-17T13:55:59.653Z,77.30
2018-10-17T13:58:29.922Z,78.40
2018-10-17T14:00:57.655Z,78.00
2018-10-17T14:03:25.329Z,77.80
2018-10-17T14:05:53.113Z,79.20
2018-10-17T14:08:20.793Z,80.10
2018-10-17T14:10:48.533Z,80.60
2018-10-17T14:13:16.315Z,81.00
2018-10-17T14:15:44.086Z,82.20
2018-10-17T14:18:11.874Z,82.50
2018-10-17T14:20:40.853Z,83.60
2018-10-17T14:23:09.618Z,82.30
2018-10-17T14:25:37.501Z,82.60
2018-10-17T14:28:05.490Z,83.70
2018-10-17T14:30:34.339Z,84.00
2018-10-17T14:33:02.519Z,84.70
2018-10-17T14:35:30.382Z,84.50
2018-10-17T14:37:58.227Z,84.40
2018-10-17T14:40:25.950Z,85.00
2018-10-17T14:42:53.729Z,85.60
2018-10-17T14:45:21.504Z,86.90
2018-10-17T14:47:49.226Z,85.20
2018-10-17T14:50:17.039Z,84.20
2018-10-17T14:52:44.888Z,86.70
2018-10-17T14:55:12.759Z,84.10
2018-10-17T14:57:40.636Z,85.10
2018-10-17T15:00:12.035Z,84.70
2018-10-17T15:02:40.388Z,84.30
2018-10-17T15:05:08.440Z,82.90
2018-10-17T15:07:36.133Z,82.30
2018-10-17T15:10:04.095Z,82.70
2018-10-17T15:12:31.838Z,81.10
2018-10-17T15:14:59.667Z,82.20
2018-10-17T15:17:27.775Z,84.00
2018-10-17T15:19:55.578Z,86.80
2018-10-17T15:22:23.371Z,87.20
2018-10-17T15:24:51.122Z,90.10
2018-10-17T15:27:19.093Z,90.10
2018-10-17T15:29:46.908Z,91.00
2018-10-17T15:32:14.633Z,90.60
2018-10-17T15:34:42.580Z,91.70
2018-10-17T15:37:10.477Z,92.70
2018-10-17T15:39:38.268Z,92.60
2018-10-17T15:42:06.001Z,93.30
2018-10-17T15:44:33.731Z,93.80
2018-10-17T15:47:01.523Z,93.80
2018-10-17T15:49:29.621Z,95.00
2018-10-17T15:51:57.809Z,96.00
2018-10-17T15:54:26.643Z,96.20
2018-10-17T15:56:54.855Z,97.00
2018-10-17T15:59:22.695Z,97.30
2018-10-17T16:01:50.484Z,99.10
2018-10-17T16:06:46.279Z,99.90
2018-10-17T16:09:14.068Z,99.90
2018-10-17T16:11:41.924Z,99.90
2018-10-17T16:14:10.009Z,99.90
2018-10-17T16:19:05.689Z,99.90
2018-10-17T16:21:33.483Z,99.90
2018-10-17T16:24:01.437Z,99.90
2018-10-17T16:26:29.204Z,99.90
2018-10-17T16:28:57.068Z,99.90
2018-10-17T16:31:24.770Z,99.90
2018-10-17T16:33:52.670Z,99.90
2018-10-17T16:36:20.750Z,99.90
2018-10-17T16:38:48.453Z,99.90
2018-10-17T16:41:16.255Z,99.90
2018-10-17T16:43:43.958Z,99.90
2018-10-17T16:46:11.732Z,99.90
2018-10-17T16:48:40.204Z,99.90
2018-10-17T16:51:07.952Z,99.90
2018-10-17T16:53:36.263Z,99.90
2018-10-17T16:56:04.284Z,99.90
2018-10-17T16:58:32.483Z,99.90
2018-10-17T17:01:00.235Z,99.90
2018-10-17T17:03:28.062Z,99.90
2018-10-17T17:05:55.878Z,99.90
2018-10-17T17:08:24.576Z,99.90
2018-10-17T17:10:52.371Z,99.90
2018-10-17T17:13:21.960Z,99.90
2018-10-17T17:15:49.859Z,99.90
2018-10-17T17:18:17.637Z,99.90
2018-10-17T17:20:45.373Z,99.90
2018-10-17T17:23:14.006Z,99.90
2018-10-17T17:25:42.068Z,99.90
2018-10-17T17:28:09.796Z,99.90
2018-10-17T17:30:37.856Z,99.90
2018-10-17T17:33:06.325Z,99.90
2018-10-17T17:35:34.059Z,99.90
2018-10-17T17:38:01.780Z,99.90
2018-10-17T17:40:29.575Z,99.90
2018-10-17T17:42:57.329Z,99.90
2018-10-17T17:45:25.073Z,99.90
2018-10-17T17:47:53.188Z,99.90
2018-10-17T17:50:21.210Z,99.90
2018-10-17T17:52:49.915Z,99.90
2018-10-17T17:55:20.990Z,99.90
2018-10-17T17:57:49.354Z,99.90
2018-10-17T18:00:17.419Z,99.90
2018-10-17T18:02:45.401Z,99.90
2018-10-17T18:05:13.593Z,99.90
2018-10-17T18:07:41.499Z,99.90
2018-10-17T18:10:09.702Z,99.90
2018-10-17T18:12:37.712Z,99.90
2018-10-17T18:15:06.401Z,99.90
2018-10-17T18:17:34.407Z,99.90
2018-10-17T18:20:02.817Z,99.90
2018-10-17T18:22:30.819Z,99.90
2018-10-17T18:24:58.536Z,99.90
2018-10-17T18:27:26.398Z,99.90
2018-10-17T18:29:54.153Z,99.90
2018-10-17T18:32:21.837Z,99.90
2018-10-17T18:34:49.590Z,99.90
2018-10-17T18:37:17.369Z,99.90
2018-10-17T18:39:45.205Z,99.90
2018-10-17T18:42:13.362Z,99.90
2018-10-17T18:44:41.077Z,99.90
2018-10-17T18:47:09.741Z,99.90
2018-10-17T18:49:37.509Z,99.90
2018-10-17T18:52:05.575Z,99.90
2018-10-17T18:54:33.241Z,99.90
2018-10-17T18:57:00.923Z,99.90
2018-10-17T18:59:28.923Z,99.90
2018-10-17T19:01:56.622Z,99.90
2018-10-17T19:04:24.297Z,99.90
2018-10-17T19:06:52.044Z,99.90
2018-10-17T19:09:19.696Z,99.90
2018-10-17T19:11:47.391Z,99.90
2018-10-17T19:14:15.045Z,99.90
2018-10-17T19:16:42.762Z,99.90
2018-10-17T19:19:10.680Z,99.90
2018-10-17T19:21:40.634Z,99.90
2018-10-17T19:24:08.362Z,99.90
2018-10-17T19:26:36.187Z,99.90
2018-10-17T19:29:04.219Z,99.90
2018-10-17T19:31:32.045Z,99.90
2018-10-17T19:34:00.133Z,99.90
2018-10-17T19:36:27.948Z,99.90
2018-10-17T19:38:57.551Z,99.90
2018-10-17T19:41:25.387Z,99.90
2018-10-17T19:43:53.228Z,99.90
2018-10-17T19:46:20.987Z,99.90
2018-10-17T19:48:49.029Z,99.90
2018-10-17T19:51:16.836Z,99.90
2018-10-17T19:53:44.537Z,99.90
2018-10-17T19:56:13.184Z,99.90
2018-10-17T19:58:41.425Z,99.90
2018-10-17T20:01:09.105Z,99.90
2018-10-17T20:03:36.791Z,99.90
2018-10-17T20:06:04.646Z,99.90
2018-10-17T20:08:32.336Z,99.90
2018-10-17T20:11:00.019Z,99.90
2018-10-17T20:13:27.712Z,99.90
2018-10-17T20:15:55.473Z,99.90
2018-10-17T20:18:23.625Z,99.90
2018-10-17T20:20:51.307Z,99.90
2018-10-17T20:23:19.846Z,99.90
2018-10-17T20:25:47.575Z,99.90
2018-10-17T20:28:18.027Z,99.90
2018-10-17T20:30:45.844Z,99.90
2018-10-17T20:33:13.782Z,99.90
2018-10-17T20:35:41.474Z,99.90
2018-10-17T20:38:09.108Z,99.90
2018-10-17T20:40:37.865Z,99.90
2018-10-17T20:43:05.609Z,99.90
2018-10-17T20:45:33.405Z,99.90
2018-10-17T20:48:01.478Z,99.90
2018-10-17T20:50:29.204Z,99.90
2018-10-17T20:52:56.975Z,99.90
2018-10-17T20:55:24.687Z,99.90
2018-10-17T20:57:52.371Z,99.90
2018-10-17T21:00:20.013Z,99.90
2018-10-17T21:02:47.757Z,99.90
2018-10-17T21:05:15.459Z,99.90
2018-10-17T21:07:43.169Z,99.90
2018-10-17T21:10:10.883Z,99.90
2018-10-17T21:12:38.516Z,99.90
2018-10-17T21:15:07.035Z,99.90
2018-10-17T21:17:34.672Z,99.90
2018-10-17T21:22:30.038Z,99.90
2018-10-17T21:24:57.721Z,99.90
2018-10-17T21:27:25.366Z,99.90
2018-10-17T21:29:53.055Z,99.90
2018-10-17T21:32:22.021Z,99.90
2018-10-17T21:34:49.693Z,99.90
2018-10-17T21:37:17.342Z,99.90
2018-10-17T21:39:45.046Z,99.90
2018-10-17T21:42:12.704Z,99.90
2018-10-17T21:44:40.342Z,99.90
2018-10-17T21:47:08.060Z,99.90
2018-10-17T21:49:35.714Z,99.90
2018-10-17T21:52:03.530Z,99.90
2018-10-17T21:54:31.177Z,99.90
2018-10-17T21:56:58.836Z,99.90
2018-10-17T21:59:26.584Z,99.90
2018-10-17T22:01:54.325Z,99.90
2018-10-17T22:04:22.004Z,99.90
2018-10-17T22:06:49.753Z,99.90
2018-10-17T22:09:17.419Z,99.90
2018-10-17T22:11:45.090Z,99.90
2018-10-17T22:14:13.470Z,99.90
2018-10-17T22:16:46.669Z,99.90
2018-10-17T22:19:14.477Z,99.90
2018-10-17T22:21:42.075Z,99.90
2018-10-17T22:24:09.774Z,99.90
2018-10-17T22:26:37.489Z,99.90
2018-10-17T22:29:05.271Z,99.90
2018-10-17T22:31:32.996Z,99.90
2018-10-17T22:34:00.631Z,99.90
2018-10-17T22:36:28.292Z,99.90
2018-10-17T22:38:55.951Z,99.90
2018-10-17T22:41:23.713Z,99.90
2018-10-17T22:43:51.445Z,99.90
2018-10-17T22:46:19.194Z,99.90
2018-10-17T22:48:46.914Z,99.90
2018-10-17T22:51:14.632Z,99.90
2018-10-17T22:53:42.285Z,99.90
2018-10-17T22:56:10.028Z,99.90
2018-10-17T22:58:37.654Z,99.90
2018-10-17T23:01:05.923Z,99.90
2018-10-17T23:08:28.758Z,99.90
2018-10-17T23:10:56.460Z,99.90
2018-10-17T23:13:24.105Z,99.90
2018-10-17T23:15:51.864Z,99.90
2018-10-17T23:18:19.533Z,99.90
2018-10-17T23:20:47.174Z,99.90
2018-10-17T23:23:14.911Z,99.90
2018-10-17T23:25:42.637Z,99.90
2018-10-17T23:28:10.323Z,99.90
2018-10-17T23:33:05.575Z,99.90
2018-10-17T23:35:33.242Z,99.90
2018-10-17T23:38:00.945Z,99.90
2018-10-17T23:40:28.582Z,99.90
2018-10-17T23:42:56.256Z,99.90
2018-10-17T23:45:23.906Z,99.90
2018-10-17T23:47:51.635Z,99.90
2018-10-17T23:52:46.900Z,99.90
2018-10-17T23:55:14.582Z,99.90
2018-10-17T23:57:42.288Z,99.90
